Lime Ridge, Wisconsin
Current Conditions -  °F | °C
As of 5:15 AM on Friday 24 Oct 2014 (Local Time) from KC35 Reporting Station
Haze Haze  
Wind Chill: 46°   Ceiling: 300
Heat Index: 46°   Visibility: 1.2mi
Dew Point: 46°   Wind: 3mph
Humidity: 100%   Direction: 270°W
Pressure: 30.04"   Gusts: NA
Location:  43.47°N, 90.15°W
Report Text: KC35 241015Z AUTO 27003KT 1 1/4SM BR OVC003 08/08 A3004 RMK AO2 T00780078
Loading
Personal Weather Stations






























Interactive Weather Map
Tropical Storm Tracking
New forecast layout! Learn more

10-Day Weather Forecast

Advertisements
Track Severe Weather on mobile